Time;durP1;ratioP1;P1;durP2;ratioP2;P2;SDS_P1;SDS_P2;PMS_P1;PMS_P2;Temp;Humidity;BMP_temperature;BMP_pressure;BME280_temperature;BME280_humidity;BME280_pressure;Samples;Min_cycle;Max_cycle;Signal;HPM_P1;HPM_P2
2021/05/27 00:00:20;;;;;;;7.80;5.60;;;13.60;99.90;;;;;;5076462;28;20174;-85
2021/05/27 00:02:47;;;;;;;8.70;6.20;;;13.60;99.90;;;;;;5076056;28;20193;-84
2021/05/27 00:05:14;;;;;;;9.45;6.30;;;13.40;99.90;;;;;;5058194;28;20186;-84
2021/05/27 00:07:40;;;;;;;12.25;6.50;;;13.40;99.90;;;;;;5038943;28;20167;-84
2021/05/27 00:10:07;;;;;;;7.15;6.55;;;13.50;99.90;;;;;;5038225;28;20167;-84
2021/05/27 00:12:33;;;;;;;8.23;7.05;;;13.50;99.90;;;;;;5056550;28;20159;-85
2021/05/27 00:15:00;;;;;;;11.32;6.97;;;13.60;99.90;;;;;;5047617;28;20199;-86
2021/05/27 00:17:26;;;;;;;7.72;6.75;;;13.60;99.90;;;;;;5076496;28;20175;-85
2021/05/27 00:19:51;;;;;;;7.55;6.90;;;13.60;99.90;;;;;;5058545;28;20175;-86
2021/05/27 00:22:17;;;;;;;7.57;6.80;;;13.70;99.90;;;;;;5058519;28;20171;-85
2021/05/27 00:24:43;;;;;;;9.30;7.10;;;13.70;99.90;;;;;;5054107;28;20179;-84
2021/05/27 00:27:09;;;;;;;8.68;6.43;;;13.60;99.90;;;;;;5057996;28;20627;-85
2021/05/27 00:29:34;;;;;;;14.35;6.95;;;13.60;99.90;;;;;;5041800;28;20171;-86
2021/05/27 00:32:00;;;;;;;12.00;7.20;;;13.70;99.90;;;;;;5041440;28;20167;-86
2021/05/27 00:34:26;;;;;;;10.95;6.60;;;13.70;99.90;;;;;;5058194;28;20220;-86
2021/05/27 00:36:52;;;;;;;18.13;7.57;;;13.70;99.90;;;;;;5068928;28;20202;-86
2021/05/27 00:39:17;;;;;;;12.07;8.38;;;13.80;99.90;;;;;;5056063;28;20168;-86
2021/05/27 00:41:43;;;;;;;10.85;9.05;;;13.80;99.90;;;;;;5056041;28;20608;-84
2021/05/27 00:44:23;;;;;;;18.50;9.13;;;13.70;99.90;;;;;;5038219;28;20604;-86
2021/05/27 00:46:49;;;;;;;17.10;8.93;;;13.60;99.90;;;;;;5055933;28;20195;-86
2021/05/27 00:49:14;;;;;;;14.23;9.13;;;13.70;99.90;;;;;;5038264;28;20178;-86
2021/05/27 00:51:42;;;;;;;17.45;10.00;;;13.70;99.90;;;;;;5067571;28;20171;-85
2021/05/27 00:54:07;;;;;;;18.42;10.10;;;13.70;99.90;;;;;;5042729;28;20686;-85
2021/05/27 00:56:33;;;;;;;22.45;11.43;;;13.70;99.90;;;;;;5037793;28;20184;-85
2021/05/27 00:59:00;;;;;;;17.55;11.10;;;13.60;99.90;;;;;;5055554;28;20167;-85
2021/05/27 01:01:25;;;;;;;17.70;11.05;;;13.70;99.90;;;;;;5037734;28;20214;-86
2021/05/27 01:03:51;;;;;;;23.80;12.70;;;13.70;99.90;;;;;;5055533;28;20199;-86
2021/05/27 01:06:16;;;;;;;30.25;12.85;;;13.80;99.90;;;;;;5038408;28;20220;-86
2021/05/27 01:08:42;;;;;;;27.30;12.48;;;13.80;99.90;;;;;;5075467;28;20209;-85
2021/05/27 01:11:08;;;;;;;22.85;12.38;;;13.90;99.90;;;;;;5055990;28;20576;-86
2021/05/27 01:13:33;;;;;;;31.08;13.65;;;13.90;99.90;;;;;;5045141;28;20203;-85
2021/05/27 01:16:00;;;;;;;31.00;13.88;;;13.80;99.90;;;;;;5055538;28;20250;-86
2021/05/27 01:18:27;;;;;;;23.77;13.10;;;13.80;99.90;;;;;;5055296;28;20171;-86
2021/05/27 01:20:57;;;;;;;19.40;13.45;;;13.80;99.90;;;;;;5037082;28;20254;-85
2021/05/27 01:23:25;;;;;;;19.77;12.93;;;13.70;99.90;;;;;;5046314;28;20522;-86
2021/05/27 01:25:56;;;;;;;34.08;13.68;;;13.60;99.90;;;;;;5062116;28;20175;-85
2021/05/27 01:28:22;;;;;;;24.63;13.52;;;13.60;99.90;;;;;;5037211;28;20164;-85
2021/05/27 01:30:49;;;;;;;23.35;13.13;;;13.50;99.90;;;;;;5037246;28;20530;-86
2021/05/27 01:33:17;;;;;;;17.40;13.57;;;13.60;99.90;;;;;;5054502;28;20174;-86
2021/05/27 01:35:43;;;;;;;25.80;13.25;;;13.60;99.90;;;;;;5037030;28;20677;-86
2021/05/27 01:38:15;;;;;;;27.23;13.88;;;13.60;99.90;;;;;;5037990;28;20199;-84
2021/05/27 01:40:41;;;;;;;25.80;14.20;;;13.50;99.90;;;;;;5037146;28;20663;-86
2021/05/27 01:43:08;;;;;;;27.27;14.45;;;13.50;99.90;;;;;;5054828;28;20250;-86
2021/05/27 01:45:34;;;;;;;22.08;13.88;;;13.50;99.90;;;;;;5048026;28;20179;-85
2021/05/27 01:48:00;;;;;;;29.25;14.15;;;13.40;99.90;;;;;;5074210;28;20183;-87
2021/05/27 01:50:26;;;;;;;25.70;14.32;;;13.30;99.90;;;;;;5074785;28;20607;-87
2021/05/27 01:52:56;;;;;;;24.10;14.35;;;13.40;99.90;;;;;;5056839;28;20186;-86
2021/05/27 01:55:22;;;;;;;25.02;13.82;;;13.30;99.90;;;;;;5056163;28;20197;-84
2021/05/27 01:57:48;;;;;;;26.88;14.85;;;13.30;99.90;;;;;;5074696;28;20163;-86
2021/05/27 02:00:14;;;;;;;21.30;14.60;;;13.30;99.90;;;;;;5074761;28;20167;-86
2021/05/27 02:02:40;;;;;;;23.38;15.23;;;13.40;99.90;;;;;;5064089;28;20174;-86
2021/05/27 02:05:06;;;;;;;28.85;15.70;;;13.30;99.90;;;;;;5054502;28;20713;-86
2021/05/27 02:07:31;;;;;;;20.90;15.73;;;13.30;99.90;;;;;;5020920;28;20269;-85
2021/05/27 02:09:57;;;;;;;24.42;15.32;;;13.10;99.90;;;;;;5069369;28;20271;-86
2021/05/27 02:12:23;;;;;;;24.90;17.00;;;13.00;99.90;;;;;;5074192;28;20194;-86
2021/05/27 02:14:48;;;;;;;24.50;15.73;;;12.90;99.90;;;;;;5074482;28;20642;-87
2021/05/27 02:17:14;;;;;;;24.25;16.17;;;12.90;99.90;;;;;;5074281;28;20247;-86
2021/05/27 02:19:40;;;;;;;34.65;16.60;;;12.70;99.90;;;;;;5044262;28;20171;-87
2021/05/27 02:22:05;;;;;;;28.08;17.52;;;12.60;99.90;;;;;;5061332;28;20258;-86
2021/05/27 02:24:31;;;;;;;25.88;17.75;;;12.50;99.90;;;;;;5056488;28;20281;-86
2021/05/27 02:26:57;;;;;;;32.75;16.27;;;12.60;99.90;;;;;;5074167;28;20186;-86
2021/05/27 02:29:23;;;;;;;23.23;16.85;;;12.50;99.90;;;;;;5038060;28;20175;-85
2021/05/27 02:31:48;;;;;;;32.15;17.95;;;12.40;99.90;;;;;;5053636;28;20250;-86
2021/05/27 02:34:14;;;;;;;24.85;17.42;;;12.40;99.90;;;;;;5053938;28;20256;-86
2021/05/27 02:36:39;;;;;;;22.70;16.85;;;12.40;99.90;;;;;;5020158;28;20302;-86
2021/05/27 02:39:06;;;;;;;26.63;17.33;;;12.40;99.90;;;;;;5059469;28;20308;-86
2021/05/27 02:41:32;;;;;;;30.00;18.70;;;12.40;99.90;;;;;;5053894;28;20179;-86
2021/05/27 02:43:57;;;;;;;32.05;18.50;;;12.50;99.90;;;;;;5036127;28;20186;-86
2021/05/27 02:46:23;;;;;;;29.25;18.33;;;12.60;99.90;;;;;;5036253;28;20171;-84
2021/05/27 02:48:49;;;;;;;26.55;17.30;;;12.70;99.90;;;;;;5069151;28;20175;-86
2021/05/27 02:51:14;;;;;;;28.50;16.80;;;12.90;99.90;;;;;;5073704;28;20245;-86
2021/05/27 02:53:40;;;;;;;25.75;16.58;;;12.90;99.90;;;;;;5039300;28;20589;-86
2021/05/27 02:56:06;;;;;;;33.05;17.13;;;12.80;99.90;;;;;;5055624;28;20178;-86
2021/05/27 02:58:31;;;;;;;23.08;17.02;;;12.90;99.90;;;;;;5055909;28;20171;-87
2021/05/27 03:00:57;;;;;;;30.80;16.48;;;13.20;99.90;;;;;;5067933;28;20171;-85
2021/05/27 03:03:23;;;;;;;31.65;17.10;;;13.30;99.90;;;;;;5035936;28;20214;-86
2021/05/27 03:05:49;;;;;;;30.27;18.08;;;13.30;99.90;;;;;;5035817;28;20221;-86
2021/05/27 03:08:16;;;;;;;23.58;16.33;;;13.30;99.90;;;;;;5048571;28;20198;-86
2021/05/27 03:10:42;;;;;;;21.95;15.18;;;13.30;99.90;;;;;;5073863;28;20167;-87
2021/05/27 03:13:09;;;;;;;24.05;15.35;;;13.20;99.90;;;;;;5055691;28;20232;-87
2021/05/27 03:15:35;;;;;;;20.13;16.40;;;13.10;99.90;;;;;;5055872;28;20179;-86
2021/05/27 03:18:03;;;;;;;20.60;16.35;;;13.10;99.90;;;;;;5073852;28;20620;-85
2021/05/27 03:20:29;;;;;;;34.03;17.77;;;13.00;99.90;;;;;;5073326;28;20167;-86
2021/05/27 03:22:55;;;;;;;28.05;17.42;;;13.00;99.90;;;;;;5073473;28;20177;-86
2021/05/27 03:25:21;;;;;;;29.58;17.55;;;13.20;99.90;;;;;;5065336;28;20182;-86
2021/05/27 03:27:47;;;;;;;27.55;17.10;;;13.00;99.90;;;;;;5035736;28;20182;-86
2021/05/27 03:30:13;;;;;;;26.90;17.63;;;13.00;99.90;;;;;;5035984;28;20175;-86
2021/05/27 03:32:40;;;;;;;35.80;17.67;;;12.90;99.90;;;;;;5053301;28;20175;-86
2021/05/27 03:35:07;;;;;;;31.88;16.92;;;12.80;99.90;;;;;;5035890;28;20206;-86
2021/05/27 03:37:33;;;;;;;27.38;16.42;;;12.80;99.90;;;;;;5035235;28;20175;-86
2021/05/27 03:40:12;;;;;;;26.92;15.02;;;12.80;99.90;;;;;;5035950;28;20167;-86
2021/05/27 03:42:49;;;;;;;28.33;16.80;;;12.80;99.90;;;;;;5036379;28;20171;-85
2021/05/27 03:45:17;;;;;;;25.33;15.73;;;12.70;99.90;;;;;;5039386;28;20559;-86
2021/05/27 03:47:43;;;;;;;28.83;17.00;;;12.70;99.90;;;;;;5039275;28;20167;-85
2021/05/27 03:50:12;;;;;;;29.50;17.65;;;12.80;99.90;;;;;;5039243;28;20225;-86
2021/05/27 03:52:38;;;;;;;28.83;16.70;;;12.80;99.90;;;;;;5072670;28;20175;-87
2021/05/27 03:55:10;;;;;;;31.15;18.73;;;12.90;99.90;;;;;;5058973;28;20553;-85
2021/05/27 03:57:36;;;;;;;37.03;17.30;;;12.90;99.90;;;;;;5057131;28;20179;-86
2021/05/27 04:02:50;;;;;;;28.90;17.17;;;13.00;99.90;;;;;;5041824;28;20159;-86
2021/05/27 04:08:00;;;;;;;28.08;16.52;;;13.00;99.90;;;;;;5076554;28;20185;-86
2021/05/27 04:10:28;;;;;;;27.65;16.88;;;13.10;99.90;;;;;;5076484;28;20529;-86
2021/05/27 04:12:54;;;;;;;25.98;17.52;;;13.20;99.90;;;;;;5076670;28;20158;-86
2021/05/27 04:15:24;;;;;;;34.53;16.73;;;13.30;99.90;;;;;;5073361;28;20214;-86
2021/05/27 04:18:08;;;;;;;36.83;18.13;;;13.30;99.90;;;;;;5062786;28;20534;-86
2021/05/27 04:20:43;;;;;;;30.00;17.25;;;13.30;99.90;;;;;;5076723;28;20159;-86
2021/05/27 04:23:35;;;;;;;21.60;16.83;;;13.30;99.90;;;;;;5076340;28;20241;-86
2021/05/27 04:26:02;;;;;;;29.20;17.75;;;13.30;99.90;;;;;;5036424;28;20160;-86
2021/05/27 04:28:27;;;;;;;30.70;18.83;;;13.20;99.90;;;;;;5047607;28;20258;-86
2021/05/27 04:31:09;;;;;;;36.42;19.10;;;13.20;99.90;;;;;;5056266;28;20584;-86
2021/05/27 04:33:45;;;;;;;33.15;19.73;;;13.30;99.90;;;;;;5056291;28;20447;-86
2021/05/27 04:36:15;;;;;;;28.98;18.80;;;13.30;99.90;;;;;;5036808;28;20222;-86
2021/05/27 04:38:41;;;;;;;42.20;20.70;;;13.20;99.90;;;;;;5036046;28;20595;-85
2021/05/27 04:41:07;;;;;;;39.03;20.15;;;13.30;99.90;;;;;;5036116;28;20636;-86
2021/05/27 04:43:40;;;;;;;32.17;19.48;;;13.10;99.90;;;;;;5036273;28;20259;-86
2021/05/27 04:46:06;;;;;;;32.38;18.98;;;13.20;99.90;;;;;;5050266;28;20562;-86
2021/05/27 04:48:32;;;;;;;39.50;21.30;;;13.10;99.90;;;;;;5058090;28;20170;-85
2021/05/27 04:50:58;;;;;;;32.78;19.77;;;13.20;99.90;;;;;;5058016;28;20248;-86
2021/05/27 04:53:24;;;;;;;33.60;20.55;;;13.30;99.90;;;;;;5057677;28;20197;-85
2021/05/27 04:55:51;;;;;;;31.15;19.15;;;13.30;99.90;;;;;;5057653;28;20182;-86
2021/05/27 04:58:17;;;;;;;37.80;21.77;;;13.30;99.90;;;;;;5058021;28;20630;-85
2021/05/27 05:00:44;;;;;;;36.88;21.23;;;13.40;99.90;;;;;;5076068;28;20167;-86
2021/05/27 05:03:10;;;;;;;36.10;20.52;;;13.40;99.90;;;;;;5075983;28;20170;-85
2021/05/27 05:05:36;;;;;;;31.25;20.20;;;13.40;99.90;;;;;;5058957;28;20242;-86
2021/05/27 05:08:03;;;;;;;36.40;19.55;;;13.50;99.90;;;;;;5037797;28;20171;-86
2021/05/27 05:10:30;;;;;;;37.38;19.67;;;13.50;99.90;;;;;;5055502;28;20178;-86
2021/05/27 05:12:57;;;;;;;26.92;18.85;;;13.50;99.90;;;;;;5037897;28;20218;-86
2021/05/27 05:15:37;;;;;;;24.20;18.83;;;13.60;99.90;;;;;;5038068;28;20207;-87
2021/05/27 05:18:04;;;;;;;32.17;20.27;;;13.60;99.90;;;;;;5075575;28;20504;-86
2021/05/27 05:20:32;;;;;;;30.80;18.95;;;13.50;99.90;;;;;;5075211;28;20165;-85
2021/05/27 05:22:59;;;;;;;36.25;19.17;;;13.60;99.90;;;;;;5075360;28;20205;-86
2021/05/27 05:25:26;;;;;;;35.28;19.50;;;13.60;99.90;;;;;;5057410;28;20167;-86
2021/05/27 05:27:52;;;;;;;31.17;19.50;;;13.70;99.90;;;;;;5075206;28;20260;-86
2021/05/27 05:30:18;;;;;;;29.67;18.60;;;13.80;99.90;;;;;;5057295;28;20170;-85
2021/05/27 05:32:45;;;;;;;28.40;19.75;;;14.00;99.90;;;;;;5075056;28;20169;-86
2021/05/27 05:35:12;;;;;;;32.65;19.55;;;14.10;99.90;;;;;;5027920;28;20231;-86
2021/05/27 05:37:39;;;;;;;27.73;19.05;;;14.20;99.90;;;;;;5036947;28;20175;-86
2021/05/27 05:40:06;;;;;;;28.70;19.73;;;14.30;99.90;;;;;;5037050;28;20184;-87
2021/05/27 05:42:31;;;;;;;29.05;18.92;;;14.20;99.90;;;;;;5055077;28;20207;-86
2021/05/27 05:44:57;;;;;;;29.23;18.33;;;14.10;99.90;;;;;;5037236;28;20636;-84
2021/05/27 05:47:23;;;;;;;27.63;19.33;;;14.10;99.90;;;;;;5073791;28;20619;-86
2021/05/27 05:49:49;;;;;;;34.53;19.10;;;14.10;99.90;;;;;;5074787;28;20161;-86
2021/05/27 05:52:14;;;;;;;23.55;18.35;;;14.00;99.90;;;;;;5040488;28;20635;-85
2021/05/27 05:54:41;;;;;;;33.67;20.17;;;14.20;99.90;;;;;;5074266;28;20197;-86
2021/05/27 05:57:07;;;;;;;32.80;19.45;;;14.40;99.90;;;;;;5074650;28;20174;-84
2021/05/27 05:59:32;;;;;;;29.10;18.83;;;14.50;99.90;;;;;;5056741;28;20309;-86
2021/05/27 06:01:58;;;;;;;26.05;18.13;;;14.60;99.90;;;;;;5074362;28;20633;-86
2021/05/27 06:04:25;;;;;;;27.38;18.63;;;14.80;99.90;;;;;;5050411;28;20587;-86
2021/05/27 06:06:51;;;;;;;21.70;17.42;;;14.90;99.90;;;;;;5054005;28;20264;-86
2021/05/27 06:09:18;;;;;;;26.35;18.35;;;14.90;99.90;;;;;;5020442;28;20168;-86
2021/05/27 06:11:43;;;;;;;22.42;18.33;;;15.10;99.90;;;;;;5020266;28;20581;-86
2021/05/27 06:14:09;;;;;;;25.30;17.55;;;15.20;99.90;;;;;;5054200;28;20203;-86
2021/05/27 06:16:34;;;;;;;24.35;17.15;;;15.20;99.90;;;;;;5066095;28;20178;-86
2021/05/27 06:19:00;;;;;;;23.08;15.68;;;15.40;99.90;;;;;;5074170;28;20592;-85
2021/05/27 06:21:26;;;;;;;21.60;16.67;;;15.40;99.90;;;;;;5056773;28;20179;-86
2021/05/27 06:23:51;;;;;;;21.00;16.88;;;15.40;99.90;;;;;;5056379;28;20210;-86
2021/05/27 06:26:17;;;;;;;20.52;16.20;;;15.40;99.90;;;;;;5074038;28;20177;-85
2021/05/27 06:28:43;;;;;;;20.23;16.40;;;15.20;99.90;;;;;;5073561;28;20262;-84
2021/05/27 06:31:08;;;;;;;18.98;16.27;;;15.00;99.90;;;;;;5073775;28;20216;-85
2021/05/27 06:33:35;;;;;;;20.00;16.38;;;15.00;99.90;;;;;;5039572;28;20206;-86
2021/05/27 06:36:01;;;;;;;22.35;17.38;;;15.00;99.90;;;;;;5054874;28;20180;-86
2021/05/27 06:38:27;;;;;;;23.73;17.02;;;15.00;99.90;;;;;;5054081;28;20171;-86
2021/05/27 06:40:53;;;;;;;25.42;17.00;;;15.10;99.90;;;;;;5036178;28;20175;-86
2021/05/27 06:43:18;;;;;;;21.00;17.30;;;15.20;99.90;;;;;;5053653;28;20316;-85
2021/05/27 06:45:44;;;;;;;28.15;17.10;;;15.30;99.90;;;;;;5058333;28;20185;-85
2021/05/27 06:48:10;;;;;;;19.30;17.30;;;15.40;99.90;;;;;;5055903;28;20178;-85
2021/05/27 06:50:36;;;;;;;20.13;16.40;;;15.50;99.90;;;;;;5073808;28;20163;-84
2021/05/27 06:53:14;;;;;;;23.23;16.15;;;15.50;99.90;;;;;;5055950;28;20205;-86
2021/05/27 06:55:40;;;;;;;24.80;16.35;;;15.50;99.90;;;;;;5074065;28;20166;-86
2021/05/27 06:58:07;;;;;;;28.38;16.30;;;15.50;99.90;;;;;;5055856;28;20179;-86
2021/05/27 07:00:34;;;;;;;19.00;15.68;;;15.60;99.90;;;;;;5073839;28;20199;-86
2021/05/27 07:03:01;;;;;;;22.65;15.98;;;15.50;99.90;;;;;;5039419;28;20171;-86
2021/05/27 07:05:28;;;;;;;18.75;15.50;;;15.50;99.90;;;;;;5059268;28;20238;-86
2021/05/27 07:07:55;;;;;;;17.52;15.27;;;15.40;99.90;;;;;;5053815;28;20178;-86
2021/05/27 07:10:20;;;;;;;20.48;15.77;;;15.70;99.90;;;;;;5057523;28;20169;-87
2021/05/27 07:12:54;;;;;;;19.80;15.43;;;16.10;99.90;;;;;;5055792;28;20628;-85
2021/05/27 07:15:22;;;;;;;26.02;15.55;;;16.30;99.90;;;;;;5055929;28;20194;-86
2021/05/27 07:17:49;;;;;;;18.42;14.27;;;16.40;99.90;;;;;;5058697;28;20159;-86
2021/05/27 07:20:16;;;;;;;17.45;13.80;;;16.40;99.90;;;;;;5049635;28;20168;-86
2021/05/27 07:22:42;;;;;;;17.75;12.05;;;16.50;99.90;;;;;;5039745;28;20198;-85
2021/05/27 07:25:08;;;;;;;20.67;13.70;;;16.70;99.90;;;;;;5057232;28;20171;-84
2021/05/27 07:27:34;;;;;;;13.48;11.00;;;16.80;99.90;;;;;;5057087;28;20175;-84
2021/05/27 07:30:00;;;;;;;18.17;10.88;;;17.10;99.90;;;;;;5039320;28;20522;-84
2021/05/27 07:32:26;;;;;;;12.27;10.60;;;16.90;99.90;;;;;;5057069;28;20627;-84
2021/05/27 07:34:52;;;;;;;17.55;10.38;;;16.90;99.90;;;;;;5047277;28;20679;-85
2021/05/27 07:37:17;;;;;;;21.85;11.15;;;17.00;99.90;;;;;;5046664;28;20249;-84
2021/05/27 07:39:43;;;;;;;19.58;10.20;;;17.10;99.90;;;;;;5076780;28;20162;-84
2021/05/27 07:42:09;;;;;;;13.07;10.90;;;16.90;99.90;;;;;;5076896;28;20202;-84
2021/05/27 07:44:36;;;;;;;13.73;9.70;;;16.60;99.90;;;;;;5076726;28;20203;-85
2021/05/27 07:47:03;;;;;;;11.35;10.20;;;16.50;99.90;;;;;;5077092;28;20170;-84
2021/05/27 07:49:29;;;;;;;14.88;10.38;;;16.30;99.90;;;;;;5059205;28;20182;-85
2021/05/27 07:51:56;;;;;;;12.60;10.63;;;16.00;99.90;;;;;;5076808;28;20163;-85
2021/05/27 07:54:22;;;;;;;13.30;11.30;;;15.90;99.90;;;;;;5076421;28;20205;-84
2021/05/27 07:56:48;;;;;;;17.83;12.20;;;15.80;99.90;;;;;;5058850;28;20564;-85
2021/05/27 07:59:15;;;;;;;13.57;12.18;;;15.90;99.90;;;;;;5058361;28;20250;-85
2021/05/27 08:01:41;;;;;;;18.10;11.52;;;15.80;99.90;;;;;;5076622;28;20608;-85
2021/05/27 08:04:07;;;;;;;12.38;11.18;;;15.70;99.90;;;;;;5041731;28;20190;-84
2021/05/27 08:06:33;;;;;;;11.40;10.25;;;15.60;99.90;;;;;;5062491;28;20194;-85
2021/05/27 08:08:59;;;;;;;17.92;11.60;;;15.50;99.90;;;;;;5058062;28;20163;-84
2021/05/27 08:11:25;;;;;;;11.20;10.15;;;15.40;99.90;;;;;;5059047;28;20683;-87
2021/05/27 08:13:51;;;;;;;21.98;10.00;;;15.60;99.90;;;;;;5063307;28;20534;-87
2021/05/27 08:16:16;;;;;;;14.07;10.07;;;15.80;99.90;;;;;;5038635;28;20258;-85
2021/05/27 08:18:42;;;;;;;14.55;9.73;;;16.00;99.90;;;;;;5056309;28;20225;-87
2021/05/27 08:21:08;;;;;;;12.30;10.20;;;16.40;99.90;;;;;;5055890;28;20163;-83
2021/05/27 08:23:35;;;;;;;16.52;10.55;;;16.70;99.90;;;;;;5056191;28;20199;-87
2021/05/27 08:26:01;;;;;;;11.75;10.38;;;17.40;99.90;;;;;;5056344;28;20171;-89
2021/05/27 08:28:26;;;;;;;17.60;11.68;;;17.70;99.90;;;;;;5037777;28;20223;-85
2021/05/27 08:30:52;;;;;;;12.90;10.73;;;17.40;99.90;;;;;;5056258;28;20163;-87
2021/05/27 08:33:18;;;;;;;12.70;11.38;;;17.30;99.90;;;;;;5038420;28;20182;-88
2021/05/27 08:35:44;;;;;;;19.65;12.07;;;17.20;99.90;;;;;;5057036;28;20250;-86
2021/05/27 08:38:09;;;;;;;13.55;11.85;;;17.40;99.90;;;;;;5075638;28;20236;-88
2021/05/27 08:40:36;;;;;;;12.95;11.07;;;17.70;99.90;;;;;;5058563;28;20174;-84
2021/05/27 08:43:02;;;;;;;15.30;10.63;;;18.70;99.90;;;;;;5075938;28;20170;-87
2021/05/27 08:45:32;;;;;;;11.98;10.70;;;20.20;99.90;;;;;;5057613;28;20166;-86
2021/05/27 08:47:58;;;;;;;14.25;9.93;;;20.50;99.90;;;;;;5075611;28;20623;-85
2021/05/27 08:50:30;;;;;;;11.43;10.30;;;20.50;99.90;;;;;;5057771;28;20200;-84
2021/05/27 08:52:57;;;;;;;14.95;11.85;;;20.10;99.90;;;;;;5075656;28;20636;-88
2021/05/27 08:55:23;;;;;;;11.95;10.85;;;19.80;99.90;;;;;;5075820;28;20240;-88
2021/05/27 08:57:49;;;;;;;16.95;10.07;;;19.60;99.90;;;;;;5075257;28;20167;-86
2021/05/27 09:00:15;;;;;;;16.10;10.48;;;19.20;99.90;;;;;;5075199;28;20174;-87
2021/05/27 09:03:02;;;;;;;11.55;10.43;;;18.70;99.90;;;;;;5074950;28;20236;-85
2021/05/27 09:05:35;;;;;;;12.18;10.40;;;18.70;99.90;;;;;;5075268;28;20178;-87
2021/05/27 09:08:00;;;;;;;11.13;10.00;;;18.70;99.90;;;;;;5072344;28;20573;-86
2021/05/27 09:10:47;;;;;;;10.10;9.27;;;18.60;99.90;;;;;;5057225;28;20206;-87
2021/05/27 09:13:17;;;;;;;17.55;9.45;;;18.70;99.90;;;;;;5075423;28;20158;-87
2021/05/27 09:15:43;;;;;;;23.15;10.07;;;18.40;99.90;;;;;;5074835;28;20244;-86
2021/05/27 09:18:09;;;;;;;11.00;9.65;;;17.80;99.90;;;;;;5075230;28;20178;-86
2021/05/27 09:20:35;;;;;;;12.20;8.88;;;17.60;99.90;;;;;;5051332;28;20179;-82
2021/05/27 09:23:18;;;;;;;13.68;11.68;;;17.30;99.90;;;;;;5052116;28;20241;-83
2021/05/27 09:25:49;;;;;;;10.57;9.57;;;17.40;99.90;;;;;;5054000;28;20225;-84
2021/05/27 09:28:24;;;;;;;17.33;10.77;;;17.40;99.90;;;;;;5054866;28;20198;-89
2021/05/27 09:30:54;;;;;;;12.35;10.60;;;17.30;99.90;;;;;;5055080;28;20205;-87
2021/05/27 09:33:30;;;;;;;11.65;9.57;;;17.40;99.90;;;;;;5037042;28;20196;-87
2021/05/27 09:36:21;;;;;;;11.15;10.05;;;17.50;99.90;;;;;;5055674;28;20171;-88
2021/05/27 09:39:02;;;;;;;10.50;8.48;;;17.80;99.90;;;;;;5026545;28;20600;-84
2021/05/27 09:41:35;;;;;;;8.65;7.85;;;19.50;99.90;;;;;;5055375;28;20562;-83
2021/05/27 09:44:01;;;;;;;7.85;7.03;;;22.80;99.90;;;;;;5056542;28;20627;-83
2021/05/27 09:46:27;;;;;;;8.48;6.72;;;24.20;99.90;;;;;;5055853;28;20257;-84
2021/05/27 09:49:08;;;;;;;6.47;5.80;;;26.70;99.90;;;;;;5056477;28;20216;-84
2021/05/27 09:51:34;;;;;;;6.18;5.68;;;27.10;99.90;;;;;;5073991;28;20182;-83
2021/05/27 09:54:00;;;;;;;6.25;5.65;;;29.50;99.90;;;;;;5057509;28;20226;-86
2021/05/27 09:56:38;;;;;;;8.30;6.00;;;29.90;99.90;;;;;;5054185;28;20266;-86
2021/05/27 09:59:04;;;;;;;9.70;6.22;;;29.40;99.90;;;;;;5036355;28;20270;-89
2021/05/27 10:01:31;;;;;;;7.07;5.20;;;26.70;99.90;;;;;;5053782;28;20240;-85
2021/05/27 10:04:17;;;;;;;6.25;5.47;;;25.40;99.90;;;;;;5052872;28;20187;-87
2021/05/27 10:06:44;;;;;;;10.32;6.60;;;23.60;99.90;;;;;;5053167;28;20201;-87
2021/05/27 10:09:10;;;;;;;10.27;6.93;;;23.50;99.90;;;;;;5052657;28;20254;-88
2021/05/27 10:11:37;;;;;;;7.95;7.30;;;23.90;99.90;;;;;;5034977;28;20215;-86
2021/05/27 10:14:04;;;;;;;7.00;6.30;;;23.50;99.90;;;;;;5057707;28;20207;-86
2021/05/27 10:16:30;;;;;;;7.72;6.70;;;23.50;99.90;;;;;;5035842;28;20228;-86
2021/05/27 10:18:57;;;;;;;7.85;6.95;;;22.90;99.90;;;;;;5056595;28;20261;-86
2021/05/27 10:21:25;;;;;;;6.85;6.25;;;22.70;99.90;;;;;;5053124;28;20179;-86
2021/05/27 10:23:54;;;;;;;7.93;6.50;;;23.00;99.90;;;;;;5035670;28;20175;-87
2021/05/27 10:26:20;;;;;;;6.03;5.50;;;24.00;99.90;;;;;;5053534;28;20182;-87
2021/05/27 10:28:49;;;;;;;6.43;5.32;;;23.50;99.90;;;;;;5053514;28;20198;-87
2021/05/27 10:31:17;;;;;;;5.70;4.80;;;22.70;99.90;;;;;;5036115;28;20644;-85
2021/05/27 10:33:43;;;;;;;7.38;4.60;;;21.60;99.90;;;;;;5054275;28;20200;-88
2021/05/27 10:36:10;;;;;;;6.15;4.13;;;20.90;99.90;;;;;;5063057;28;20175;-87
2021/05/27 10:38:42;;;;;;;7.85;4.00;;;20.60;99.90;;;;;;5056333;28;20202;-87
2021/05/27 10:41:22;;;;;;;5.53;3.88;;;20.40;99.90;;;;;;5056207;28;20177;-88
2021/05/27 10:44:11;;;;;;;7.72;3.90;;;20.10;99.90;;;;;;5056782;28;20611;-89
2021/05/27 10:46:43;;;;;;;5.03;3.17;;;22.00;99.90;;;;;;5074520;28;20268;-88
2021/05/27 10:49:09;;;;;;;3.92;3.53;;;25.50;99.90;;;;;;5074153;28;20170;-87
2021/05/27 10:51:42;;;;;;;7.15;3.15;;;28.10;99.90;;;;;;5063841;28;20182;-84
2021/05/27 10:54:12;;;;;;;6.47;3.35;;;30.40;99.90;;;;;;5039551;28;20276;-83
2021/05/27 10:56:39;;;;;;;3.45;3.15;;;31.10;99.90;;;;;;5071110;28;20261;-88
2021/05/27 10:59:06;;;;;;;3.30;2.97;;;30.70;98.90;;;;;;5077062;28;20167;-89
2021/05/27 11:01:33;;;;;;;7.65;3.88;;;31.10;98.50;;;;;;5079127;28;20700;-89
2021/05/27 11:04:01;;;;;;;3.25;2.53;;;30.20;97.20;;;;;;5060603;28;20179;-86
2021/05/27 11:06:38;;;;;;;7.72;3.47;;;29.80;98.20;;;;;;5058777;28;20182;-89
2021/05/27 11:09:10;;;;;;;6.22;2.88;;;28.20;98.90;;;;;;5040337;28;20179;-88
2021/05/27 11:11:49;;;;;;;4.85;3.15;;;28.30;99.10;;;;;;5040677;28;20500;-90
2021/05/27 11:14:36;;;;;;;4.93;3.22;;;30.70;99.50;;;;;;5057603;28;20278;-87
2021/05/27 11:17:04;;;;;;;11.20;3.13;;;30.60;95.70;;;;;;5039763;28;20163;-88
2021/05/27 11:19:56;;;;;;;5.63;3.50;;;29.30;96.60;;;;;;5051744;28;20202;-86
2021/05/27 11:22:28;;;;;;;4.47;3.50;;;27.20;98.40;;;;;;5077998;28;20155;-88
2021/05/27 11:25:12;;;;;;;5.95;3.60;;;25.00;99.90;;;;;;5077541;28;20213;-88
2021/05/27 11:27:52;;;;;;;4.57;3.72;;;23.80;99.90;;;;;;5077673;28;20171;-87
2021/05/27 11:30:18;;;;;;;5.00;4.03;;;23.00;99.90;;;;;;5068468;28;20152;-89
2021/05/27 11:32:49;;;;;;;9.27;4.60;;;22.90;99.90;;;;;;5035252;28;20175;-85
2021/05/27 11:35:17;;;;;;;8.18;3.97;;;25.70;99.90;;;;;;5055038;28;20556;-83
2021/05/27 11:37:44;;;;;;;7.13;4.13;;;27.10;99.90;;;;;;5038668;28;20182;-87
2021/05/27 11:40:11;;;;;;;7.47;3.55;;;26.20;99.90;;;;;;5056632;28;20174;-82
2021/05/27 11:42:38;;;;;;;8.27;3.95;;;24.60;99.90;;;;;;5056663;28;20177;-82
2021/05/27 11:45:07;;;;;;;5.85;3.65;;;23.30;99.90;;;;;;5038794;28;20187;-84
2021/05/27 11:47:32;;;;;;;9.55;3.15;;;22.90;99.90;;;;;;5056327;28;20163;-80
2021/05/27 11:50:13;;;;;;;3.72;3.38;;;23.60;99.90;;;;;;5056844;28;20597;-87
2021/05/27 11:52:40;;;;;;;5.38;3.17;;;23.80;99.90;;;;;;5038432;28;20569;-83
2021/05/27 11:55:10;;;;;;;4.05;3.58;;;26.60;99.90;;;;;;5038238;28;20615;-84
2021/05/27 11:57:47;;;;;;;5.22;3.10;;;27.60;99.70;;;;;;5061080;28;20615;-83
2021/05/27 12:00:16;;;;;;;7.95;2.70;;;28.90;98.40;;;;;;5058979;28;20619;-89
2021/05/27 12:02:46;;;;;;;2.63;2.42;;;30.10;98.20;;;;;;5075827;28;20200;-88
2021/05/27 12:05:32;;;;;;;4.35;2.85;;;29.10;96.30;;;;;;5076454;28;20225;-88
2021/05/27 12:08:04;;;;;;;5.90;3.60;;;28.00;98.20;;;;;;5037943;28;20685;-87
2021/05/27 12:10:31;;;;;;;6.07;3.90;;;26.50;99.60;;;;;;5043693;28;20251;-88
2021/05/27 12:12:58;;;;;;;7.10;3.75;;;26.80;99.90;;;;;;5057382;28;20163;-86
2021/05/27 12:15:25;;;;;;;7.40;4.25;;;27.10;98.40;;;;;;5039156;28;20203;-86
2021/05/27 12:17:52;;;;;;;6.57;3.63;;;27.40;98.20;;;;;;5038000;28;20167;-86
2021/05/27 12:20:32;;;;;;;8.15;5.07;;;26.60;99.30;;;;;;5073340;28;20166;-86
2021/05/27 12:23:10;;;;;;;5.30;3.33;;;25.30;99.90;;;;;;5059106;28;20531;-88
2021/05/27 12:25:45;;;;;;;6.30;4.03;;;23.70;99.90;;;;;;5077053;28;20147;-86
2021/05/27 12:28:12;;;;;;;6.88;3.58;;;22.70;99.90;;;;;;5077069;28;20158;-89
2021/05/27 12:30:40;;;;;;;4.90;4.45;;;22.00;99.90;;;;;;5076965;28;20167;-90
2021/05/27 12:33:07;;;;;;;11.77;3.90;;;21.70;99.90;;;;;;5058772;28;20162;-85
2021/05/27 12:35:40;;;;;;;10.15;4.18;;;21.70;99.90;;;;;;5075876;28;20214;-88
2021/05/27 12:38:08;;;;;;;6.50;3.70;;;22.00;99.90;;;;;;5057731;28;20589;-86
2021/05/27 12:40:37;;;;;;;6.00;3.63;;;21.80;99.90;;;;;;5056218;28;20692;-87
2021/05/27 12:43:18;;;;;;;11.10;5.40;;;22.00;99.90;;;;;;5038518;28;20171;-87